sensor_id;sensor_type;location;lat;lon;timestamp;P1;durP1;ratioP1;P2;durP2;ratioP2
20731;SDS011;10527;52.124;5.196;2023-07-20T00:01:51;1.50;;;1.27;;
20731;SDS011;10527;52.124;5.196;2023-07-20T00:04:18;2.50;;;1.58;;
20731;SDS011;10527;52.124;5.196;2023-07-20T00:06:45;2.90;;;1.50;;
20731;SDS011;10527;52.124;5.196;2023-07-20T00:09:13;1.63;;;1.33;;
20731;SDS011;10527;52.124;5.196;2023-07-20T00:11:47;2.22;;;1.20;;
20731;SDS011;10527;52.124;5.196;2023-07-20T00:14:19;2.65;;;1.40;;
20731;SDS011;10527;52.124;5.196;2023-07-20T00:16:47;2.38;;;1.30;;
20731;SDS011;10527;52.124;5.196;2023-07-20T00:19:26;1.83;;;1.02;;
20731;SDS011;10527;52.124;5.196;2023-07-20T00:21:54;1.27;;;0.90;;
20731;SDS011;10527;52.124;5.196;2023-07-20T00:24:21;0.82;;;0.80;;
20731;SDS011;10527;52.124;5.196;2023-07-20T00:26:51;1.88;;;0.93;;
20731;SDS011;10527;52.124;5.196;2023-07-20T00:29:18;0.93;;;0.70;;
20731;SDS011;10527;52.124;5.196;2023-07-20T00:31:45;1.15;;;0.80;;
20731;SDS011;10527;52.124;5.196;2023-07-20T00:34:13;0.75;;;0.70;;
20731;SDS011;10527;52.124;5.196;2023-07-20T00:36:40;1.15;;;0.85;;
20731;SDS011;10527;52.124;5.196;2023-07-20T00:39:07;1.48;;;0.77;;
20731;SDS011;10527;52.124;5.196;2023-07-20T00:41:34;0.95;;;0.70;;
20731;SDS011;10527;52.124;5.196;2023-07-20T00:44:04;0.95;;;0.70;;
20731;SDS011;10527;52.124;5.196;2023-07-20T00:46:31;1.00;;;0.88;;
20731;SDS011;10527;52.124;5.196;2023-07-20T00:48:59;1.60;;;0.80;;
20731;SDS011;10527;52.124;5.196;2023-07-20T00:51:27;2.20;;;0.90;;
20731;SDS011;10527;52.124;5.196;2023-07-20T00:53:55;1.08;;;0.80;;
20731;SDS011;10527;52.124;5.196;2023-07-20T00:56:22;0.77;;;0.77;;
20731;SDS011;10527;52.124;5.196;2023-07-20T00:58:49;1.15;;;0.75;;
20731;SDS011;10527;52.124;5.196;2023-07-20T01:01:18;1.88;;;0.70;;
20731;SDS011;10527;52.124;5.196;2023-07-20T01:03:45;1.75;;;0.90;;
20731;SDS011;10527;52.124;5.196;2023-07-20T01:06:14;0.75;;;0.70;;
20731;SDS011;10527;52.124;5.196;2023-07-20T01:09:39;0.70;;;0.68;;
20731;SDS011;10527;52.124;5.196;2023-07-20T01:12:19;1.30;;;0.90;;
20731;SDS011;10527;52.124;5.196;2023-07-20T01:15:02;1.23;;;0.90;;
20731;SDS011;10527;52.124;5.196;2023-07-20T01:17:29;1.33;;;1.05;;
20731;SDS011;10527;52.124;5.196;2023-07-20T01:19:56;0.88;;;0.88;;
20731;SDS011;10527;52.124;5.196;2023-07-20T01:28:35;1.65;;;1.00;;
20731;SDS011;10527;52.124;5.196;2023-07-20T01:31:33;1.00;;;0.90;;
20731;SDS011;10527;52.124;5.196;2023-07-20T01:34:04;1.35;;;0.90;;
20731;SDS011;10527;52.124;5.196;2023-07-20T01:36:35;1.90;;;0.80;;
20731;SDS011;10527;52.124;5.196;2023-07-20T01:39:06;1.20;;;0.80;;
20731;SDS011;10527;52.124;5.196;2023-07-20T01:41:37;1.40;;;0.90;;
20731;SDS011;10527;52.124;5.196;2023-07-20T01:44:04;1.00;;;0.90;;
20731;SDS011;10527;52.124;5.196;2023-07-20T01:46:31;1.58;;;0.82;;
20731;SDS011;10527;52.124;5.196;2023-07-20T01:48:58;0.77;;;0.77;;
20731;SDS011;10527;52.124;5.196;2023-07-20T01:51:25;1.00;;;0.90;;
20731;SDS011;10527;52.124;5.196;2023-07-20T01:53:52;0.90;;;0.80;;
20731;SDS011;10527;52.124;5.196;2023-07-20T01:56:19;1.80;;;0.90;;
20731;SDS011;10527;52.124;5.196;2023-07-20T01:58:47;2.00;;;1.10;;
20731;SDS011;10527;52.124;5.196;2023-07-20T02:01:14;1.25;;;0.80;;
20731;SDS011;10527;52.124;5.196;2023-07-20T02:03:41;2.28;;;0.90;;
20731;SDS011;10527;52.124;5.196;2023-07-20T02:06:07;0.70;;;0.70;;
20731;SDS011;10527;52.124;5.196;2023-07-20T02:08:34;1.20;;;0.90;;
20731;SDS011;10527;52.124;5.196;2023-07-20T02:11:02;2.83;;;1.02;;
20731;SDS011;10527;52.124;5.196;2023-07-20T02:13:31;1.25;;;1.05;;
20731;SDS011;10527;52.124;5.196;2023-07-20T02:15:58;0.93;;;0.82;;
20731;SDS011;10527;52.124;5.196;2023-07-20T02:18:25;1.23;;;1.13;;
20731;SDS011;10527;52.124;5.196;2023-07-20T02:20:52;1.17;;;0.90;;
20731;SDS011;10527;52.124;5.196;2023-07-20T02:23:20;1.42;;;1.00;;
20731;SDS011;10527;52.124;5.196;2023-07-20T02:25:47;2.72;;;1.08;;
20731;SDS011;10527;52.124;5.196;2023-07-20T02:28:14;2.20;;;1.23;;
20731;SDS011;10527;52.124;5.196;2023-07-20T02:30:41;1.77;;;1.20;;
20731;SDS011;10527;52.124;5.196;2023-07-20T02:33:08;2.58;;;1.35;;
20731;SDS011;10527;52.124;5.196;2023-07-20T02:35:35;1.45;;;0.98;;
20731;SDS011;10527;52.124;5.196;2023-07-20T02:38:02;2.92;;;1.30;;
20731;SDS011;10527;52.124;5.196;2023-07-20T02:40:30;1.33;;;1.23;;
20731;SDS011;10527;52.124;5.196;2023-07-20T02:42:56;1.65;;;1.10;;
20731;SDS011;10527;52.124;5.196;2023-07-20T02:45:23;1.58;;;1.08;;
20731;SDS011;10527;52.124;5.196;2023-07-20T02:47:50;2.00;;;0.90;;
20731;SDS011;10527;52.124;5.196;2023-07-20T02:50:17;2.65;;;0.98;;
20731;SDS011;10527;52.124;5.196;2023-07-20T02:52:44;1.92;;;1.05;;
20731;SDS011;10527;52.124;5.196;2023-07-20T02:55:11;1.90;;;1.10;;
20731;SDS011;10527;52.124;5.196;2023-07-20T02:57:38;1.25;;;0.85;;
20731;SDS011;10527;52.124;5.196;2023-07-20T03:00:05;3.88;;;1.10;;
20731;SDS011;10527;52.124;5.196;2023-07-20T03:02:33;2.13;;;1.73;;
20731;SDS011;10527;52.124;5.196;2023-07-20T03:05:00;2.17;;;1.40;;
20731;SDS011;10527;52.124;5.196;2023-07-20T03:07:29;1.50;;;1.20;;
20731;SDS011;10527;52.124;5.196;2023-07-20T03:09:56;1.42;;;1.00;;
20731;SDS011;10527;52.124;5.196;2023-07-20T03:12:23;2.50;;;1.45;;
20731;SDS011;10527;52.124;5.196;2023-07-20T03:14:52;2.38;;;1.35;;
20731;SDS011;10527;52.124;5.196;2023-07-20T03:17:20;2.42;;;1.33;;
20731;SDS011;10527;52.124;5.196;2023-07-20T03:19:47;1.70;;;1.25;;
20731;SDS011;10527;52.124;5.196;2023-07-20T03:22:14;1.30;;;1.10;;
20731;SDS011;10527;52.124;5.196;2023-07-20T03:24:41;2.33;;;1.20;;
20731;SDS011;10527;52.124;5.196;2023-07-20T03:27:08;1.40;;;1.00;;
20731;SDS011;10527;52.124;5.196;2023-07-20T03:29:34;1.48;;;1.23;;
20731;SDS011;10527;52.124;5.196;2023-07-20T03:32:01;1.52;;;1.15;;
20731;SDS011;10527;52.124;5.196;2023-07-20T03:34:29;1.58;;;1.20;;
20731;SDS011;10527;52.124;5.196;2023-07-20T03:36:55;1.88;;;1.10;;
20731;SDS011;10527;52.124;5.196;2023-07-20T03:39:22;1.77;;;1.20;;
20731;SDS011;10527;52.124;5.196;2023-07-20T03:41:49;1.60;;;1.20;;
20731;SDS011;10527;52.124;5.196;2023-07-20T03:44:16;1.42;;;1.02;;
20731;SDS011;10527;52.124;5.196;2023-07-20T03:46:45;2.13;;;1.33;;
20731;SDS011;10527;52.124;5.196;2023-07-20T03:49:14;1.42;;;1.05;;
20731;SDS011;10527;52.124;5.196;2023-07-20T03:51:41;2.42;;;1.15;;
20731;SDS011;10527;52.124;5.196;2023-07-20T03:54:08;2.63;;;1.20;;
20731;SDS011;10527;52.124;5.196;2023-07-20T03:56:34;1.10;;;1.00;;
20731;SDS011;10527;52.124;5.196;2023-07-20T03:59:02;2.67;;;1.60;;
20731;SDS011;10527;52.124;5.196;2023-07-20T04:01:29;2.78;;;1.10;;
20731;SDS011;10527;52.124;5.196;2023-07-20T04:03:55;1.25;;;1.00;;
20731;SDS011;10527;52.124;5.196;2023-07-20T04:06:25;2.50;;;1.50;;
20731;SDS011;10527;52.124;5.196;2023-07-20T04:08:52;1.77;;;1.33;;
20731;SDS011;10527;52.124;5.196;2023-07-20T04:11:19;1.67;;;1.27;;
20731;SDS011;10527;52.124;5.196;2023-07-20T04:13:45;1.65;;;1.20;;
20731;SDS011;10527;52.124;5.196;2023-07-20T04:16:12;1.52;;;1.30;;
20731;SDS011;10527;52.124;5.196;2023-07-20T04:18:39;1.63;;;1.30;;
20731;SDS011;10527;52.124;5.196;2023-07-20T04:21:08;2.20;;;1.60;;
20731;SDS011;10527;52.124;5.196;2023-07-20T04:23:35;2.92;;;1.95;;
20731;SDS011;10527;52.124;5.196;2023-07-20T04:26:03;2.63;;;1.88;;
20731;SDS011;10527;52.124;5.196;2023-07-20T04:28:30;1.95;;;1.63;;
20731;SDS011;10527;52.124;5.196;2023-07-20T04:31:09;2.10;;;1.88;;
20731;SDS011;10527;52.124;5.196;2023-07-20T04:33:46;2.63;;;2.10;;
20731;SDS011;10527;52.124;5.196;2023-07-20T04:36:13;7.10;;;2.85;;
20731;SDS011;10527;52.124;5.196;2023-07-20T04:38:43;3.15;;;2.05;;
20731;SDS011;10527;52.124;5.196;2023-07-20T04:41:10;2.95;;;2.15;;
20731;SDS011;10527;52.124;5.196;2023-07-20T04:43:42;2.75;;;2.17;;
20731;SDS011;10527;52.124;5.196;2023-07-20T04:46:11;4.10;;;2.50;;
20731;SDS011;10527;52.124;5.196;2023-07-20T04:48:38;3.40;;;2.33;;
20731;SDS011;10527;52.124;5.196;2023-07-20T04:51:06;3.05;;;2.22;;
20731;SDS011;10527;52.124;5.196;2023-07-20T04:53:33;3.08;;;2.45;;
20731;SDS011;10527;52.124;5.196;2023-07-20T04:56:00;3.38;;;2.50;;
20731;SDS011;10527;52.124;5.196;2023-07-20T04:58:27;3.63;;;2.53;;
20731;SDS011;10527;52.124;5.196;2023-07-20T05:00:54;3.28;;;2.58;;
20731;SDS011;10527;52.124;5.196;2023-07-20T05:03:21;2.05;;;1.85;;
20731;SDS011;10527;52.124;5.196;2023-07-20T05:05:48;2.50;;;2.05;;
20731;SDS011;10527;52.124;5.196;2023-07-20T05:08:16;2.60;;;2.13;;
20731;SDS011;10527;52.124;5.196;2023-07-20T05:10:43;3.47;;;2.47;;
20731;SDS011;10527;52.124;5.196;2023-07-20T05:13:10;4.05;;;2.65;;
20731;SDS011;10527;52.124;5.196;2023-07-20T05:15:37;2.45;;;2.22;;
20731;SDS011;10527;52.124;5.196;2023-07-20T05:18:03;4.00;;;2.25;;
20731;SDS011;10527;52.124;5.196;2023-07-20T05:20:31;3.55;;;2.03;;
20731;SDS011;10527;52.124;5.196;2023-07-20T05:22:59;2.22;;;2.03;;
20731;SDS011;10527;52.124;5.196;2023-07-20T05:25:27;1.98;;;1.65;;
20731;SDS011;10527;52.124;5.196;2023-07-20T05:27:56;2.25;;;1.73;;
20731;SDS011;10527;52.124;5.196;2023-07-20T05:30:23;2.75;;;1.73;;
20731;SDS011;10527;52.124;5.196;2023-07-20T05:32:50;3.40;;;1.85;;
20731;SDS011;10527;52.124;5.196;2023-07-20T05:35:18;3.78;;;1.77;;
20731;SDS011;10527;52.124;5.196;2023-07-20T05:37:46;2.22;;;1.40;;
20731;SDS011;10527;52.124;5.196;2023-07-20T05:40:14;1.60;;;1.40;;
20731;SDS011;10527;52.124;5.196;2023-07-20T05:42:46;1.73;;;1.17;;
20731;SDS011;10527;52.124;5.196;2023-07-20T05:45:15;3.58;;;1.30;;
20731;SDS011;10527;52.124;5.196;2023-07-20T05:47:42;1.30;;;0.93;;
20731;SDS011;10527;52.124;5.196;2023-07-20T05:50:09;1.20;;;0.90;;
20731;SDS011;10527;52.124;5.196;2023-07-20T05:52:36;1.77;;;0.95;;
20731;SDS011;10527;52.124;5.196;2023-07-20T05:55:05;1.17;;;0.90;;
20731;SDS011;10527;52.124;5.196;2023-07-20T05:57:33;1.65;;;1.00;;
20731;SDS011;10527;52.124;5.196;2023-07-20T06:00:01;0.90;;;0.80;;
20731;SDS011;10527;52.124;5.196;2023-07-20T06:02:28;3.80;;;1.00;;
20731;SDS011;10527;52.124;5.196;2023-07-20T06:04:56;1.20;;;0.70;;
20731;SDS011;10527;52.124;5.196;2023-07-20T06:07:22;0.70;;;0.70;;
20731;SDS011;10527;52.124;5.196;2023-07-20T06:09:50;2.33;;;1.00;;
20731;SDS011;10527;52.124;5.196;2023-07-20T06:12:17;0.63;;;0.60;;
20731;SDS011;10527;52.124;5.196;2023-07-20T06:14:44;0.90;;;0.70;;
20731;SDS011;10527;52.124;5.196;2023-07-20T06:17:11;1.15;;;0.70;;
20731;SDS011;10527;52.124;5.196;2023-07-20T06:19:38;0.77;;;0.60;;
20731;SDS011;10527;52.124;5.196;2023-07-20T06:22:05;1.10;;;0.60;;
20731;SDS011;10527;52.124;5.196;2023-07-20T06:24:32;1.45;;;0.70;;
20731;SDS011;10527;52.124;5.196;2023-07-20T06:26:58;2.08;;;0.75;;
20731;SDS011;10527;52.124;5.196;2023-07-20T06:29:25;2.85;;;0.75;;
20731;SDS011;10527;52.124;5.196;2023-07-20T06:31:52;3.53;;;0.70;;
20731;SDS011;10527;52.124;5.196;2023-07-20T06:34:19;2.20;;;0.75;;
20731;SDS011;10527;52.124;5.196;2023-07-20T06:36:49;0.40;;;0.40;;
20731;SDS011;10527;52.124;5.196;2023-07-20T06:39:16;1.73;;;0.70;;
20731;SDS011;10527;52.124;5.196;2023-07-20T06:41:49;1.27;;;0.70;;
20731;SDS011;10527;52.124;5.196;2023-07-20T06:44:21;1.55;;;0.60;;
20731;SDS011;10527;52.124;5.196;2023-07-20T06:46:49;1.02;;;0.43;;
20731;SDS011;10527;52.124;5.196;2023-07-20T06:49:25;0.40;;;0.40;;
20731;SDS011;10527;52.124;5.196;2023-07-20T06:51:54;0.85;;;0.47;;
20731;SDS011;10527;52.124;5.196;2023-07-20T06:54:21;1.42;;;0.57;;
20731;SDS011;10527;52.124;5.196;2023-07-20T06:56:49;0.65;;;0.50;;
20731;SDS011;10527;52.124;5.196;2023-07-20T06:59:36;0.95;;;0.40;;
20731;SDS011;10527;52.124;5.196;2023-07-20T07:02:06;0.50;;;0.43;;
20731;SDS011;10527;52.124;5.196;2023-07-20T07:04:39;0.43;;;0.30;;
20731;SDS011;10527;52.124;5.196;2023-07-20T07:07:07;0.70;;;0.40;;
20731;SDS011;10527;52.124;5.196;2023-07-20T07:09:36;3.38;;;0.50;;
20731;SDS011;10527;52.124;5.196;2023-07-20T07:12:03;1.10;;;0.40;;
20731;SDS011;10527;52.124;5.196;2023-07-20T07:14:31;2.60;;;0.50;;
20731;SDS011;10527;52.124;5.196;2023-07-20T07:16:58;3.42;;;1.15;;
20731;SDS011;10527;52.124;5.196;2023-07-20T07:19:30;0.82;;;0.40;;
20731;SDS011;10527;52.124;5.196;2023-07-20T07:21:57;0.80;;;0.30;;
20731;SDS011;10527;52.124;5.196;2023-07-20T07:24:25;0.68;;;0.40;;
20731;SDS011;10527;52.124;5.196;2023-07-20T07:26:55;1.85;;;0.50;;
20731;SDS011;10527;52.124;5.196;2023-07-20T07:29:22;1.30;;;0.43;;
20731;SDS011;10527;52.124;5.196;2023-07-20T07:31:48;0.82;;;0.35;;
20731;SDS011;10527;52.124;5.196;2023-07-20T07:34:15;1.27;;;0.50;;
20731;SDS011;10527;52.124;5.196;2023-07-20T07:36:43;3.95;;;1.20;;
20731;SDS011;10527;52.124;5.196;2023-07-20T07:39:10;2.17;;;0.40;;
20731;SDS011;10527;52.124;5.196;2023-07-20T07:41:40;1.10;;;0.40;;
20731;SDS011;10527;52.124;5.196;2023-07-20T07:44:07;0.75;;;0.40;;
20731;SDS011;10527;52.124;5.196;2023-07-20T07:46:33;1.55;;;0.38;;
20731;SDS011;10527;52.124;5.196;2023-07-20T07:49:00;0.98;;;0.40;;
20731;SDS011;10527;52.124;5.196;2023-07-20T07:51:27;1.42;;;0.38;;
20731;SDS011;10527;52.124;5.196;2023-07-20T07:53:54;1.30;;;0.30;;
20731;SDS011;10527;52.124;5.196;2023-07-20T07:56:21;0.65;;;0.40;;
20731;SDS011;10527;52.124;5.196;2023-07-20T07:58:50;0.32;;;0.20;;
20731;SDS011;10527;52.124;5.196;2023-07-20T08:01:20;0.35;;;0.20;;
20731;SDS011;10527;52.124;5.196;2023-07-20T08:03:47;1.23;;;0.50;;
20731;SDS011;10527;52.124;5.196;2023-07-20T08:06:14;0.32;;;0.20;;
20731;SDS011;10527;52.124;5.196;2023-07-20T08:08:42;1.02;;;0.30;;
20731;SDS011;10527;52.124;5.196;2023-07-20T08:11:09;0.20;;;0.20;;
20731;SDS011;10527;52.124;5.196;2023-07-20T08:13:37;0.30;;;0.20;;
20731;SDS011;10527;52.124;5.196;2023-07-20T08:16:04;0.20;;;0.20;;
20731;SDS011;10527;52.124;5.196;2023-07-20T08:18:31;1.75;;;0.60;;
20731;SDS011;10527;52.124;5.196;2023-07-20T08:20:58;1.05;;;0.30;;
20731;SDS011;10527;52.124;5.196;2023-07-20T08:23:25;0.70;;;0.38;;
20731;SDS011;10527;52.124;5.196;2023-07-20T08:25:53;0.30;;;0.28;;
20731;SDS011;10527;52.124;5.196;2023-07-20T08:28:21;0.20;;;0.10;;
20731;SDS011;10527;52.124;5.196;2023-07-20T08:30:48;0.60;;;0.20;;
20731;SDS011;10527;52.124;5.196;2023-07-20T08:33:16;0.30;;;0.30;;
20731;SDS011;10527;52.124;5.196;2023-07-20T08:35:46;0.30;;;0.30;;
20731;SDS011;10527;52.124;5.196;2023-07-20T08:38:13;0.95;;;0.30;;
20731;SDS011;10527;52.124;5.196;2023-07-20T08:40:41;0.68;;;0.20;;
20731;SDS011;10527;52.124;5.196;2023-07-20T08:43:10;0.55;;;0.32;;
20731;SDS011;10527;52.124;5.196;2023-07-20T08:45:39;0.30;;;0.20;;
20731;SDS011;10527;52.124;5.196;2023-07-20T08:48:07;0.70;;;0.40;;
20731;SDS011;10527;52.124;5.196;2023-07-20T08:50:35;0.20;;;0.20;;
20731;SDS011;10527;52.124;5.196;2023-07-20T08:53:04;1.05;;;0.30;;
20731;SDS011;10527;52.124;5.196;2023-07-20T08:55:33;0.63;;;0.40;;
20731;SDS011;10527;52.124;5.196;2023-07-20T08:58:03;0.10;;;0.10;;
20731;SDS011;10527;52.124;5.196;2023-07-20T09:00:36;0.82;;;0.32;;
20731;SDS011;10527;52.124;5.196;2023-07-20T09:03:05;1.33;;;0.30;;
20731;SDS011;10527;52.124;5.196;2023-07-20T09:05:33;1.23;;;0.20;;
20731;SDS011;10527;52.124;5.196;2023-07-20T09:08:01;0.65;;;0.50;;
20731;SDS011;10527;52.124;5.196;2023-07-20T09:10:31;0.80;;;0.40;;
20731;SDS011;10527;52.124;5.196;2023-07-20T09:12:58;0.93;;;0.40;;
20731;SDS011;10527;52.124;5.196;2023-07-20T09:15:25;0.50;;;0.35;;
20731;SDS011;10527;52.124;5.196;2023-07-20T09:17:52;0.43;;;0.30;;
20731;SDS011;10527;52.124;5.196;2023-07-20T09:20:20;0.75;;;0.22;;
20731;SDS011;10527;52.124;5.196;2023-07-20T09:22:50;0.77;;;0.30;;
20731;SDS011;10527;52.124;5.196;2023-07-20T09:25:19;0.63;;;0.40;;
20731;SDS011;10527;52.124;5.196;2023-07-20T09:27:48;0.17;;;0.17;;
20731;SDS011;10527;52.124;5.196;2023-07-20T09:30:17;0.50;;;0.20;;
20731;SDS011;10527;52.124;5.196;2023-07-20T09:32:45;0.30;;;0.22;;
20731;SDS011;10527;52.124;5.196;2023-07-20T09:35:18;0.32;;;0.20;;
20731;SDS011;10527;52.124;5.196;2023-07-20T09:37:59;0.32;;;0.22;;
20731;SDS011;10527;52.124;5.196;2023-07-20T09:40:36;0.15;;;0.15;;
20731;SDS011;10527;52.124;5.196;2023-07-20T09:43:08;0.20;;;0.20;;
20731;SDS011;10527;52.124;5.196;2023-07-20T09:45:42;0.32;;;0.20;;
20731;SDS011;10527;52.124;5.196;2023-07-20T09:48:12;0.20;;;0.20;;
20731;SDS011;10527;52.124;5.196;2023-07-20T09:50:43;0.28;;;0.20;;
20731;SDS011;10527;52.124;5.196;2023-07-20T09:53:16;0.20;;;0.20;;
20731;SDS011;10527;52.124;5.196;2023-07-20T09:55:45;0.55;;;0.30;;
20731;SDS011;10527;52.124;5.196;2023-07-20T09:58:14;0.63;;;0.30;;
20731;SDS011;10527;52.124;5.196;2023-07-20T10:00:42;0.20;;;0.20;;
20731;SDS011;10527;52.124;5.196;2023-07-20T10:03:19;0.77;;;0.28;;
20731;SDS011;10527;52.124;5.196;2023-07-20T10:05:51;0.75;;;0.52;;
20731;SDS011;10527;52.124;5.196;2023-07-20T10:08:38;0.52;;;0.40;;
20731;SDS011;10527;52.124;5.196;2023-07-20T10:11:10;0.65;;;0.30;;
20731;SDS011;10527;52.124;5.196;2023-07-20T10:13:40;0.17;;;0.17;;
20731;SDS011;10527;52.124;5.196;2023-07-20T10:16:11;1.27;;;0.40;;
20731;SDS011;10527;52.124;5.196;2023-07-20T10:21:25;0.85;;;0.30;;
20731;SDS011;10527;52.124;5.196;2023-07-20T10:23:58;0.85;;;0.30;;
20731;SDS011;10527;52.124;5.196;2023-07-20T10:26:27;0.98;;;0.50;;
20731;SDS011;10527;52.124;5.196;2023-07-20T10:28:55;0.45;;;0.30;;
20731;SDS011;10527;52.124;5.196;2023-07-20T10:31:24;1.90;;;0.40;;
20731;SDS011;10527;52.124;5.196;2023-07-20T10:33:56;0.88;;;0.70;;
20731;SDS011;10527;52.124;5.196;2023-07-20T10:36:24;1.15;;;0.40;;
20731;SDS011;10527;52.124;5.196;2023-07-20T10:38:57;1.05;;;0.35;;
20731;SDS011;10527;52.124;5.196;2023-07-20T10:41:34;0.88;;;0.60;;
20731;SDS011;10527;52.124;5.196;2023-07-20T10:44:07;0.90;;;0.38;;
20731;SDS011;10527;52.124;5.196;2023-07-20T10:49:06;0.60;;;0.30;;
20731;SDS011;10527;52.124;5.196;2023-07-20T10:51:44;0.30;;;0.20;;
20731;SDS011;10527;52.124;5.196;2023-07-20T10:56:47;0.63;;;0.40;;
20731;SDS011;10527;52.124;5.196;2023-07-20T10:59:18;1.35;;;0.73;;
20731;SDS011;10527;52.124;5.196;2023-07-20T11:01:54;1.65;;;0.60;;
20731;SDS011;10527;52.124;5.196;2023-07-20T11:04:42;1.27;;;0.50;;
20731;SDS011;10527;52.124;5.196;2023-07-20T11:07:15;0.80;;;0.50;;
20731;SDS011;10527;52.124;5.196;2023-07-20T11:09:43;0.45;;;0.38;;
20731;SDS011;10527;52.124;5.196;2023-07-20T11:12:17;0.73;;;0.40;;
20731;SDS011;10527;52.124;5.196;2023-07-20T11:14:54;0.55;;;0.40;;
20731;SDS011;10527;52.124;5.196;2023-07-20T11:17:30;0.75;;;0.55;;
20731;SDS011;10527;52.124;5.196;2023-07-20T11:20:02;1.05;;;0.40;;
20731;SDS011;10527;52.124;5.196;2023-07-20T11:22:32;0.65;;;0.40;;
20731;SDS011;10527;52.124;5.196;2023-07-20T11:25:00;1.38;;;0.50;;
20731;SDS011;10527;52.124;5.196;2023-07-20T11:27:27;1.35;;;0.63;;
20731;SDS011;10527;52.124;5.196;2023-07-20T11:29:54;0.60;;;0.47;;
20731;SDS011;10527;52.124;5.196;2023-07-20T11:32:22;2.47;;;0.45;;
20731;SDS011;10527;52.124;5.196;2023-07-20T11:34:51;1.00;;;0.40;;
20731;SDS011;10527;52.124;5.196;2023-07-20T11:37:18;1.02;;;0.40;;
20731;SDS011;10527;52.124;5.196;2023-07-20T11:39:45;1.65;;;0.40;;
20731;SDS011;10527;52.124;5.196;2023-07-20T11:42:13;0.80;;;0.30;;
20731;SDS011;10527;52.124;5.196;2023-07-20T11:45:04;0.93;;;0.40;;
20731;SDS011;10527;52.124;5.196;2023-07-20T11:47:32;0.30;;;0.30;;
20731;SDS011;10527;52.124;5.196;2023-07-20T11:50:03;1.73;;;0.60;;
20731;SDS011;10527;52.124;5.196;2023-07-20T11:52:31;4.03;;;0.40;;
20731;SDS011;10527;52.124;5.196;2023-07-20T11:54:58;1.88;;;0.60;;
20731;SDS011;10527;52.124;5.196;2023-07-20T11:57:25;2.50;;;0.90;;
20731;SDS011;10527;52.124;5.196;2023-07-20T11:59:53;1.73;;;0.63;;
20731;SDS011;10527;52.124;5.196;2023-07-20T12:02:27;0.77;;;0.60;;
20731;SDS011;10527;52.124;5.196;2023-07-20T12:04:55;1.67;;;0.40;;
20731;SDS011;10527;52.124;5.196;2023-07-20T12:07:25;0.88;;;0.32;;
20731;SDS011;10527;52.124;5.196;2023-07-20T12:10:12;0.50;;;0.32;;
20731;SDS011;10527;52.124;5.196;2023-07-20T12:12:43;1.00;;;0.32;;
20731;SDS011;10527;52.124;5.196;2023-07-20T12:15:19;0.65;;;0.32;;
20731;SDS011;10527;52.124;5.196;2023-07-20T12:17:56;1.65;;;0.32;;
20731;SDS011;10527;52.124;5.196;2023-07-20T12:23:03;0.73;;;0.40;;
20731;SDS011;10527;52.124;5.196;2023-07-20T12:25:44;0.90;;;0.43;;
20731;SDS011;10527;52.124;5.196;2023-07-20T12:30:44;2.67;;;0.45;;
20731;SDS011;10527;52.124;5.196;2023-07-20T12:33:12;0.70;;;0.47;;
20731;SDS011;10527;52.124;5.196;2023-07-20T12:35:43;1.83;;;0.50;;
20731;SDS011;10527;52.124;5.196;2023-07-20T12:38:11;1.33;;;0.50;;
20731;SDS011;10527;52.124;5.196;2023-07-20T12:40:39;0.80;;;0.40;;
20731;SDS011;10527;52.124;5.196;2023-07-20T12:43:07;0.65;;;0.40;;
20731;SDS011;10527;52.124;5.196;2023-07-20T12:45:34;0.80;;;0.50;;
20731;SDS011;10527;52.124;5.196;2023-07-20T12:48:01;1.08;;;0.40;;
20731;SDS011;10527;52.124;5.196;2023-07-20T12:50:28;1.05;;;0.30;;
20731;SDS011;10527;52.124;5.196;2023-07-20T12:52:54;1.88;;;0.52;;
20731;SDS011;10527;52.124;5.196;2023-07-20T12:55:21;3.05;;;0.60;;
20731;SDS011;10527;52.124;5.196;2023-07-20T12:57:48;1.27;;;0.45;;
20731;SDS011;10527;52.124;5.196;2023-07-20T13:00:15;2.30;;;0.30;;
20731;SDS011;10527;52.124;5.196;2023-07-20T13:02:43;3.70;;;0.60;;
20731;SDS011;10527;52.124;5.196;2023-07-20T13:05:10;2.25;;;0.50;;
20731;SDS011;10527;52.124;5.196;2023-07-20T13:07:37;2.92;;;0.73;;
20731;SDS011;10527;52.124;5.196;2023-07-20T13:10:09;1.15;;;0.47;;
20731;SDS011;10527;52.124;5.196;2023-07-20T13:12:37;2.92;;;1.20;;
20731;SDS011;10527;52.124;5.196;2023-07-20T13:15:06;0.35;;;0.35;;
20731;SDS011;10527;52.124;5.196;2023-07-20T13:17:35;0.90;;;0.60;;
20731;SDS011;10527;52.124;5.196;2023-07-20T13:20:08;1.35;;;0.40;;
20731;SDS011;10527;52.124;5.196;2023-07-20T13:22:37;0.73;;;0.40;;
20731;SDS011;10527;52.124;5.196;2023-07-20T13:25:06;2.45;;;0.50;;
20731;SDS011;10527;52.124;5.196;2023-07-20T13:27:34;1.67;;;0.38;;
20731;SDS011;10527;52.124;5.196;2023-07-20T13:30:04;0.43;;;0.40;;
20731;SDS011;10527;52.124;5.196;2023-07-20T13:32:36;1.35;;;0.40;;
20731;SDS011;10527;52.124;5.196;2023-07-20T13:35:06;0.50;;;0.22;;
20731;SDS011;10527;52.124;5.196;2023-07-20T13:37:36;0.32;;;0.30;;
20731;SDS011;10527;52.124;5.196;2023-07-20T13:40:03;0.95;;;0.40;;
20731;SDS011;10527;52.124;5.196;2023-07-20T13:42:32;1.10;;;0.38;;
20731;SDS011;10527;52.124;5.196;2023-07-20T13:44:59;0.98;;;0.50;;
20731;SDS011;10527;52.124;5.196;2023-07-20T13:47:26;2.30;;;0.47;;
20731;SDS011;10527;52.124;5.196;2023-07-20T13:49:54;1.27;;;0.50;;
20731;SDS011;10527;52.124;5.196;2023-07-20T13:52:29;0.52;;;0.52;;
20731;SDS011;10527;52.124;5.196;2023-07-20T13:54:59;1.30;;;0.90;;
20731;SDS011;10527;52.124;5.196;2023-07-20T13:57:31;1.95;;;0.60;;
20731;SDS011;10527;52.124;5.196;2023-07-20T14:00:00;2.47;;;0.50;;
20731;SDS011;10527;52.124;5.196;2023-07-20T14:02:31;0.40;;;0.30;;
20731;SDS011;10527;52.124;5.196;2023-07-20T14:05:01;1.35;;;0.45;;
20731;SDS011;10527;52.124;5.196;2023-07-20T14:07:31;0.20;;;0.20;;
20731;SDS011;10527;52.124;5.196;2023-07-20T14:09:58;0.52;;;0.35;;
20731;SDS011;10527;52.124;5.196;2023-07-20T14:12:28;0.43;;;0.40;;
20731;SDS011;10527;52.124;5.196;2023-07-20T14:14:55;1.23;;;0.50;;
20731;SDS011;10527;52.124;5.196;2023-07-20T14:17:22;8.38;;;0.50;;
20731;SDS011;10527;52.124;5.196;2023-07-20T14:19:50;1.55;;;0.68;;
20731;SDS011;10527;52.124;5.196;2023-07-20T14:22:19;1.58;;;0.50;;
20731;SDS011;10527;52.124;5.196;2023-07-20T14:24:45;0.43;;;0.40;;
20731;SDS011;10527;52.124;5.196;2023-07-20T14:27:12;0.77;;;0.40;;
20731;SDS011;10527;52.124;5.196;2023-07-20T14:29:39;0.40;;;0.32;;
20731;SDS011;10527;52.124;5.196;2023-07-20T14:32:06;1.75;;;0.50;;
20731;SDS011;10527;52.124;5.196;2023-07-20T14:34:33;0.35;;;0.30;;
20731;SDS011;10527;52.124;5.196;2023-07-20T14:37:04;0.63;;;0.40;;
20731;SDS011;10527;52.124;5.196;2023-07-20T14:39:32;0.85;;;0.30;;
20731;SDS011;10527;52.124;5.196;2023-07-20T14:41:59;0.52;;;0.30;;
20731;SDS011;10527;52.124;5.196;2023-07-20T14:44:26;0.65;;;0.40;;
20731;SDS011;10527;52.124;5.196;2023-07-20T14:46:52;0.25;;;0.25;;
20731;SDS011;10527;52.124;5.196;2023-07-20T14:49:38;0.80;;;0.50;;
20731;SDS011;10527;52.124;5.196;2023-07-20T14:52:05;0.40;;;0.30;;
20731;SDS011;10527;52.124;5.196;2023-07-20T14:54:41;1.63;;;0.50;;
20731;SDS011;10527;52.124;5.196;2023-07-20T14:57:08;1.40;;;0.47;;
20731;SDS011;10527;52.124;5.196;2023-07-20T14:59:41;0.40;;;0.40;;
20731;SDS011;10527;52.124;5.196;2023-07-20T15:02:08;0.57;;;0.40;;
20731;SDS011;10527;52.124;5.196;2023-07-20T15:04:35;1.20;;;0.40;;
20731;SDS011;10527;52.124;5.196;2023-07-20T15:07:02;0.43;;;0.20;;
20731;SDS011;10527;52.124;5.196;2023-07-20T15:09:30;3.05;;;0.68;;
20731;SDS011;10527;52.124;5.196;2023-07-20T15:11:57;0.70;;;0.30;;
20731;SDS011;10527;52.124;5.196;2023-07-20T15:14:24;0.95;;;0.35;;
20731;SDS011;10527;52.124;5.196;2023-07-20T15:16:51;0.30;;;0.30;;
20731;SDS011;10527;52.124;5.196;2023-07-20T15:19:17;1.30;;;0.57;;